createdAt,value
2019-03-26T00:02:05.510Z,5.80
2019-03-26T00:04:37.681Z,5.40
2019-03-26T00:07:09.833Z,5.28
2019-03-26T00:09:42.010Z,6.35
2019-03-26T00:12:14.776Z,6.10
2019-03-26T00:14:46.831Z,4.70
2019-03-26T00:17:19.090Z,4.92
2019-03-26T00:19:51.353Z,5.20
2019-03-26T00:22:23.541Z,5.35
2019-03-26T00:24:55.698Z,6.30
2019-03-26T00:27:28.110Z,5.37
2019-03-26T00:30:00.546Z,6.22
2019-03-26T00:32:32.714Z,5.87
2019-03-26T00:35:04.892Z,5.67
2019-03-26T00:37:36.889Z,5.87
2019-03-26T00:40:13.119Z,5.58
2019-03-26T00:42:45.658Z,6.97
2019-03-26T00:45:17.756Z,10.60
2019-03-26T00:47:49.970Z,8.33
2019-03-26T00:50:22.098Z,6.75
2019-03-26T00:52:54.359Z,6.28
2019-03-26T00:55:26.363Z,5.92
2019-03-26T00:58:01.505Z,6.05
2019-03-26T01:00:40.216Z,5.75
2019-03-26T01:03:12.396Z,6.22
2019-03-26T01:05:45.668Z,5.55
2019-03-26T01:08:17.686Z,5.62
2019-03-26T01:10:49.554Z,5.90
2019-03-26T01:13:21.750Z,5.33
2019-03-26T01:15:53.852Z,7.35
2019-03-26T01:18:25.966Z,5.47
2019-03-26T01:20:58.011Z,8.08
2019-03-26T01:23:29.950Z,7.20
2019-03-26T01:26:02.019Z,6.90
2019-03-26T01:28:34.214Z,7.95
2019-03-26T01:31:06.557Z,7.90
2019-03-26T01:33:38.610Z,6.95
2019-03-26T01:36:10.754Z,6.87
2019-03-26T01:38:43.118Z,6.87
2019-03-26T01:41:15.426Z,7.12
2019-03-26T01:43:47.491Z,6.50
2019-03-26T01:46:19.721Z,6.67
2019-03-26T01:48:51.711Z,9.58
2019-03-26T01:51:23.932Z,9.03
2019-03-26T01:53:56.536Z,8.93
2019-03-26T01:56:29.598Z,7.80
2019-03-26T01:59:01.760Z,8.10
2019-03-26T02:01:33.775Z,7.37
2019-03-26T02:04:06.999Z,8.70
2019-03-26T02:06:39.155Z,7.62
2019-03-26T02:09:11.260Z,8.53
2019-03-26T02:11:43.400Z,6.80
2019-03-26T02:14:15.738Z,7.15
2019-03-26T02:16:47.831Z,7.15
2019-03-26T02:19:19.827Z,7.30
2019-03-26T02:21:51.869Z,7.78
2019-03-26T02:24:23.882Z,6.53
2019-03-26T02:26:56.352Z,5.53
2019-03-26T02:29:28.547Z,5.55
2019-03-26T02:32:00.380Z,5.90
2019-03-26T02:34:32.645Z,6.67
2019-03-26T02:37:05.309Z,7.00
2019-03-26T02:39:37.377Z,6.90
2019-03-26T06:08:06.310Z,4.45
2019-03-26T06:10:38.258Z,5.80
2019-03-26T06:13:10.206Z,4.87
2019-03-26T06:15:42.179Z,4.97
2019-03-26T06:18:14.154Z,4.67
2019-03-26T06:20:46.395Z,4.47
2019-03-26T06:23:18.726Z,5.67
2019-03-26T06:25:50.847Z,5.62
2019-03-26T06:28:22.937Z,4.25
2019-03-26T06:30:54.880Z,4.60
2019-03-26T06:33:26.974Z,6.67
2019-03-26T06:35:59.321Z,5.42
2019-03-26T06:38:31.584Z,6.67
2019-03-26T06:41:03.817Z,6.33
2019-03-26T06:43:36.046Z,5.75
2019-03-26T06:46:08.129Z,6.65
2019-03-26T06:48:41.265Z,6.35
2019-03-26T06:51:13.450Z,6.17
2019-03-26T06:53:45.491Z,5.70
2019-03-26T06:56:17.410Z,5.75
2019-03-26T06:58:50.565Z,6.30
2019-03-26T07:01:23.005Z,7.10
2019-03-26T07:03:55.170Z,7.33
2019-03-26T07:06:27.270Z,6.92
2019-03-26T07:08:59.565Z,8.30
2019-03-26T07:11:33.390Z,6.45
2019-03-26T07:14:06.099Z,7.47
2019-03-26T07:16:38.240Z,7.62
2019-03-26T07:19:10.571Z,8.05
2019-03-26T07:21:49.460Z,7.75
2019-03-26T07:24:16.665Z,9.18
2019-03-26T07:26:50.433Z,10.13
2019-03-26T07:29:23.557Z,10.18
2019-03-26T07:31:56.097Z,8.60
2019-03-26T07:34:27.996Z,8.95
2019-03-26T07:37:00.392Z,8.35
2019-03-26T07:39:32.470Z,8.78
2019-03-26T07:42:04.580Z,7.37
2019-03-26T07:44:37.665Z,6.05
2019-03-26T07:47:09.838Z,7.20
2019-03-26T07:49:42.080Z,7.08
2019-03-26T07:52:15.635Z,7.58
2019-03-26T07:54:48.272Z,6.53
2019-03-26T07:57:20.379Z,7.28
2019-03-26T07:59:52.432Z,7.53
2019-03-26T08:02:26.566Z,7.67
2019-03-26T08:04:58.545Z,7.22
2019-03-26T08:07:30.772Z,6.80
2019-03-26T08:10:02.963Z,6.80
2019-03-26T08:12:35.240Z,6.12
2019-03-26T08:15:08.154Z,7.28
2019-03-26T08:17:40.514Z,6.42
2019-03-26T08:20:12.880Z,7.58
2019-03-26T08:22:45.157Z,7.22
2019-03-26T08:25:17.689Z,7.08
2019-03-26T08:27:50.031Z,7.30
2019-03-26T08:30:22.173Z,7.85
2019-03-26T08:32:54.436Z,7.80
2019-03-26T08:35:26.371Z,7.85
2019-03-26T08:38:11.375Z,8.03
2019-03-26T08:40:32.313Z,8.20
2019-03-26T08:43:04.607Z,6.85
2019-03-26T08:45:36.692Z,6.50
2019-03-26T08:48:09.216Z,7.12
2019-03-26T08:50:41.322Z,7.00
2019-03-26T08:53:13.457Z,7.28
2019-03-26T08:55:45.427Z,6.08
2019-03-26T08:58:17.744Z,6.80
2019-03-26T09:00:49.871Z,5.80
2019-03-26T09:03:22.023Z,6.67
2019-03-26T09:05:54.064Z,5.62
2019-03-26T09:08:26.092Z,5.40
2019-03-26T09:10:58.285Z,5.97
2019-03-26T09:13:30.581Z,5.40
2019-03-26T09:16:02.743Z,4.28
2019-03-26T09:18:34.624Z,3.72
2019-03-26T09:21:07.131Z,4.80
2019-03-26T09:23:39.178Z,4.05
2019-03-26T09:26:11.363Z,3.62
2019-03-26T09:28:43.506Z,4.78
2019-03-26T09:31:15.683Z,3.70
2019-03-26T09:33:48.080Z,3.72
2019-03-26T09:36:20.314Z,3.30
2019-03-26T09:38:52.645Z,3.08
2019-03-26T09:41:25.132Z,3.22
2019-03-26T09:43:57.491Z,2.77
2019-03-26T09:46:29.951Z,4.47
2019-03-26T09:49:02.115Z,5.35
2019-03-26T09:51:34.529Z,5.30
2019-03-26T09:54:06.980Z,6.30
2019-03-26T09:56:39.539Z,6.20
2019-03-26T09:59:11.598Z,5.87
2019-03-26T10:01:43.539Z,4.53
2019-03-26T10:04:15.577Z,4.20
2019-03-26T10:06:47.566Z,3.95
2019-03-26T10:09:19.795Z,5.25
2019-03-26T10:11:51.690Z,4.00
2019-03-26T10:14:23.895Z,4.33
2019-03-26T10:16:56.069Z,3.67
2019-03-26T10:19:28.272Z,3.20
2019-03-26T10:22:00.584Z,3.27
2019-03-26T10:24:33.603Z,3.83
2019-03-26T10:27:07.194Z,3.37
2019-03-26T10:29:39.253Z,3.22
2019-03-26T10:32:11.391Z,3.10
2019-03-26T10:34:43.707Z,2.98
2019-03-26T10:37:16.212Z,3.10
2019-03-26T10:39:48.570Z,3.08
2019-03-26T10:42:20.750Z,3.85
2019-03-26T10:44:53.348Z,3.72
2019-03-26T10:47:25.463Z,3.37
2019-03-26T10:49:57.359Z,3.27
2019-03-26T10:52:34.273Z,3.50
2019-03-26T10:55:05.764Z,3.25
2019-03-26T10:57:38.135Z,3.02
2019-03-26T11:00:10.722Z,3.20
2019-03-26T11:02:42.867Z,2.83
2019-03-26T11:05:15.489Z,3.02
2019-03-26T11:07:48.472Z,2.90
2019-03-26T11:10:20.502Z,3.40
2019-03-26T11:12:52.863Z,2.35
2019-03-26T11:15:24.878Z,2.12
2019-03-26T11:17:56.770Z,1.62
2019-03-26T11:20:28.964Z,2.30
2019-03-26T11:23:01.490Z,2.12
2019-03-26T11:25:33.619Z,2.62
2019-03-26T11:28:05.973Z,2.77
2019-03-26T11:30:37.868Z,2.58
2019-03-26T11:33:09.927Z,2.50
2019-03-26T11:35:42.303Z,2.65
2019-03-26T11:38:14.505Z,2.08
2019-03-26T11:40:46.600Z,1.47
2019-03-26T11:43:19.060Z,1.50
2019-03-26T11:45:51.311Z,1.67
2019-03-26T11:48:23.271Z,1.70
2019-03-26T11:50:55.592Z,1.57
2019-03-26T11:53:27.809Z,1.52
2019-03-26T11:55:59.818Z,1.42
2019-03-26T11:58:31.845Z,1.30
2019-03-26T12:01:05.031Z,1.25
2019-03-26T12:03:37.047Z,1.75
2019-03-26T12:06:09.332Z,1.40
2019-03-26T12:08:41.280Z,1.30
2019-03-26T12:11:13.231Z,0.90
2019-03-26T12:13:45.450Z,1.42
2019-03-26T12:16:17.572Z,1.27
2019-03-26T12:18:49.639Z,0.90
2019-03-26T12:21:21.822Z,1.20
2019-03-26T12:23:53.886Z,1.02
2019-03-26T12:26:26.117Z,1.55
2019-03-26T12:28:58.361Z,1.85
2019-03-26T12:31:30.287Z,1.45
2019-03-26T12:34:03.528Z,1.52
2019-03-26T12:36:40.193Z,0.93
2019-03-26T12:39:09.589Z,1.20
2019-03-26T12:41:41.590Z,1.00
2019-03-26T12:44:13.548Z,1.10
2019-03-26T12:46:45.578Z,1.00
2019-03-26T12:49:17.849Z,1.20
2019-03-26T12:51:51.041Z,1.20
2019-03-26T12:54:23.036Z,1.37
2019-03-26T12:56:55.164Z,1.02
2019-03-26T12:59:27.259Z,1.70
2019-03-26T13:01:59.271Z,1.22
2019-03-26T13:04:31.517Z,1.30
2019-03-26T13:07:03.766Z,1.22
2019-03-26T13:09:35.871Z,1.25
2019-03-26T13:12:08.062Z,1.00
2019-03-26T13:14:40.195Z,1.20
2019-03-26T13:17:12.213Z,1.00
2019-03-26T13:19:44.255Z,1.40
2019-03-26T13:22:16.043Z,1.72
2019-03-26T13:24:48.256Z,2.90
2019-03-26T13:27:20.342Z,1.65
2019-03-26T13:29:52.427Z,2.02
2019-03-26T13:32:24.500Z,2.02
2019-03-26T13:34:56.291Z,1.32
2019-03-26T13:37:28.200Z,1.67
2019-03-26T13:40:00.587Z,1.30
2019-03-26T13:42:32.822Z,1.25
2019-03-26T13:45:05.124Z,0.82
2019-03-26T13:47:36.950Z,1.10
2019-03-26T13:50:09.463Z,1.20
2019-03-26T13:52:41.717Z,1.07
2019-03-26T13:55:14.143Z,1.65
2019-03-26T13:57:46.130Z,1.25
2019-03-26T14:00:24.096Z,0.78
2019-03-26T14:02:56.158Z,0.80
2019-03-26T14:05:28.340Z,1.20
2019-03-26T14:08:00.513Z,0.78
2019-03-26T14:10:40.718Z,1.20
2019-03-26T14:13:06.858Z,1.02
2019-03-26T14:15:39.132Z,1.25
2019-03-26T14:18:11.087Z,0.90
2019-03-26T14:20:42.985Z,0.70
2019-03-26T14:23:15.307Z,0.78
2019-03-26T14:25:47.208Z,0.70
2019-03-26T14:28:19.045Z,0.82
2019-03-26T14:30:51.428Z,1.20
2019-03-26T14:33:23.376Z,0.98
2019-03-26T14:35:55.406Z,0.80
2019-03-26T14:38:27.571Z,0.78
2019-03-26T14:40:59.555Z,0.85
2019-03-26T14:43:31.712Z,0.88
2019-03-26T14:46:04.020Z,0.70
2019-03-26T14:48:36.104Z,0.50
2019-03-26T14:51:08.177Z,0.65
2019-03-26T14:53:40.231Z,1.00
2019-03-26T14:56:12.412Z,1.12
2019-03-26T14:58:44.586Z,1.17
2019-03-26T15:01:16.967Z,1.40
2019-03-26T15:03:49.665Z,1.10
2019-03-26T15:06:22.237Z,1.50
2019-03-26T15:08:54.255Z,1.15
2019-03-26T15:11:26.101Z,0.95
2019-03-26T15:13:58.145Z,1.20
2019-03-26T15:16:30.405Z,1.25
2019-03-26T15:19:03.552Z,1.25
2019-03-26T15:21:35.608Z,1.22
2019-03-26T15:24:07.654Z,1.40
2019-03-26T15:26:39.869Z,1.20
2019-03-26T15:29:12.018Z,0.70
2019-03-26T15:31:45.107Z,1.00
2019-03-26T15:34:17.040Z,1.02
2019-03-26T15:36:49.165Z,1.10
2019-03-26T15:39:21.255Z,1.30
2019-03-26T15:41:53.228Z,1.65
2019-03-26T15:44:25.397Z,1.20
2019-03-26T15:46:57.535Z,1.95
2019-03-26T15:49:29.859Z,1.90
2019-03-26T15:52:04.697Z,1.52
2019-03-26T15:54:36.954Z,1.25
2019-03-26T15:57:10.901Z,1.05
2019-03-26T15:59:43.104Z,1.05
2019-03-26T16:02:15.125Z,1.22
2019-03-26T16:04:47.039Z,1.05
2019-03-26T16:07:18.975Z,1.20
2019-03-26T16:09:51.712Z,1.02
2019-03-26T16:12:23.858Z,1.52
2019-03-26T16:14:55.934Z,1.77
2019-03-26T16:17:28.083Z,1.65
2019-03-26T16:20:00.360Z,1.60
2019-03-26T16:22:32.816Z,1.85
2019-03-26T18:19:24.437Z,18.35
2019-03-26T18:21:56.487Z,15.63
2019-03-26T18:24:28.392Z,17.90
2019-03-26T18:27:00.375Z,7.92
2019-03-26T18:29:32.293Z,7.40
2019-03-26T18:32:04.667Z,12.58
2019-03-26T18:34:36.886Z,15.38
2019-03-26T18:37:09.081Z,16.73
2019-03-26T18:39:41.393Z,20.33
2019-03-26T18:42:13.347Z,14.63
2019-03-26T18:44:45.437Z,12.28
2019-03-26T18:47:17.811Z,6.25
2019-03-26T18:49:49.740Z,5.87
2019-03-26T18:52:21.923Z,3.92
2019-03-26T18:54:53.967Z,5.78
2019-03-26T18:57:26.510Z,5.03
2019-03-26T18:59:58.562Z,5.20
2019-03-26T19:02:30.661Z,3.40
2019-03-26T19:05:02.692Z,2.72
2019-03-26T19:07:35.156Z,2.40
2019-03-26T19:10:08.614Z,2.70
2019-03-26T19:12:40.778Z,1.95
2019-03-26T19:15:12.915Z,1.85
2019-03-26T19:17:45.175Z,2.00
2019-03-26T19:20:17.374Z,3.00
2019-03-26T19:22:49.421Z,3.50
2019-03-26T19:25:21.595Z,3.37
2019-03-26T19:27:53.692Z,5.80
2019-03-26T19:30:25.670Z,1.90
2019-03-26T19:32:58.090Z,2.10
2019-03-26T19:35:30.149Z,1.63
2019-03-26T19:38:02.645Z,2.50
2019-03-26T19:40:34.992Z,1.93
2019-03-26T19:43:11.323Z,1.90
2019-03-26T19:45:41.194Z,2.37
2019-03-26T19:48:13.234Z,3.08
2019-03-26T19:50:45.167Z,2.45
2019-03-26T19:53:17.524Z,4.45
2019-03-26T19:55:49.808Z,5.95
2019-03-26T19:58:22.059Z,10.75
2019-03-26T20:00:54.750Z,10.40
2019-03-26T20:03:26.904Z,14.93
2019-03-26T20:06:12.493Z,11.80
2019-03-26T20:08:33.138Z,11.97
2019-03-26T20:11:05.474Z,18.55
2019-03-26T20:13:37.940Z,14.10
2019-03-26T20:16:11.177Z,9.00
2019-03-26T20:18:43.464Z,13.60
2019-03-26T20:21:15.768Z,19.90
2019-03-26T20:23:48.228Z,16.20
2019-03-26T20:26:20.248Z,8.20
2019-03-26T20:28:52.368Z,18.37
2019-03-26T20:31:24.658Z,10.53
2019-03-26T20:33:57.016Z,6.67
2019-03-26T20:36:30.507Z,6.42
2019-03-26T20:39:02.688Z,16.17
2019-03-26T20:41:36.488Z,10.05
2019-03-26T20:44:08.716Z,7.22
2019-03-26T20:46:40.720Z,7.83
2019-03-26T20:49:13.246Z,17.75
2019-03-26T20:51:45.407Z,22.67
2019-03-26T20:54:17.738Z,19.07
2019-03-26T20:56:50.575Z,12.75
2019-03-26T20:59:23.098Z,14.17
2019-03-26T21:01:55.470Z,13.43
2019-03-26T21:04:27.579Z,11.30
2019-03-26T21:06:59.932Z,9.15
2019-03-26T21:09:32.063Z,6.50
2019-03-26T21:12:04.630Z,7.72
2019-03-26T21:14:36.873Z,6.70
2019-03-26T21:17:09.083Z,7.95
2019-03-26T21:19:40.901Z,8.93
2019-03-26T21:22:13.062Z,12.10
2019-03-26T21:24:45.191Z,8.85
2019-03-26T21:27:17.762Z,7.77
2019-03-26T21:29:49.827Z,8.53
2019-03-26T21:32:22.083Z,9.53
2019-03-26T21:34:54.414Z,11.15
2019-03-26T21:37:26.490Z,7.25
